Time;durP1;ratioP1;P1;durP2;ratioP2;P2;SDS_P1;SDS_P2;PMS_P1;PMS_P2;Temp;Humidity;BMP_temperature;BMP_pressure;BME280_temperature;BME280_humidity;BME280_pressure;Samples;Min_cycle;Max_cycle;Signal;HPM_P1;HPM_P2
2023/12/02 00:02:10;;;;;;;10.63;8.17;;;-3.60;99.90;;;;;;5067968;28;20205;-64
2023/12/02 00:04:38;;;;;;;10.80;7.77;;;-3.60;99.90;;;;;;5070400;28;20226;-64
2023/12/02 00:07:05;;;;;;;12.07;8.60;;;-3.60;99.90;;;;;;5084147;28;20708;-63
2023/12/02 00:09:32;;;;;;;11.87;8.10;;;-3.60;99.90;;;;;;5087464;28;20278;-63
2023/12/02 00:11:59;;;;;;;12.87;8.77;;;-3.60;99.90;;;;;;5087549;28;20250;-64
2023/12/02 00:14:26;;;;;;;12.40;8.80;;;-3.50;99.90;;;;;;5087827;28;20226;-64
2023/12/02 00:16:53;;;;;;;12.77;8.37;;;-3.60;99.90;;;;;;5087282;28;20575;-64
2023/12/02 00:19:20;;;;;;;14.07;8.97;;;-3.70;99.90;;;;;;5087474;28;20209;-65
2023/12/02 00:21:49;;;;;;;11.90;8.50;;;-3.60;99.90;;;;;;5087374;28;20289;-65
2023/12/02 00:24:16;;;;;;;11.43;8.13;;;-3.60;99.90;;;;;;5069323;28;20310;-65
2023/12/02 00:26:43;;;;;;;11.43;8.17;;;-3.60;99.90;;;;;;5067084;28;20266;-65
2023/12/02 00:29:10;;;;;;;12.47;9.00;;;-3.60;99.90;;;;;;5067575;28;20322;-65
2023/12/02 00:31:37;;;;;;;13.07;8.97;;;-3.50;99.90;;;;;;5075015;28;20285;-65
2023/12/02 00:34:04;;;;;;;10.57;7.70;;;-3.50;99.90;;;;;;5087224;28;20314;-65
2023/12/02 00:36:33;;;;;;;12.27;8.10;;;-3.50;99.90;;;;;;5078256;28;20233;-65
2023/12/02 00:39:01;;;;;;;11.97;7.43;;;-3.60;99.90;;;;;;5087170;28;20203;-65
2023/12/02 00:41:28;;;;;;;11.40;8.30;;;-3.60;99.90;;;;;;5086737;28;20200;-66
2023/12/02 00:43:55;;;;;;;12.90;7.70;;;-3.60;99.90;;;;;;5085222;28;20757;-65
2023/12/02 00:46:21;;;;;;;12.03;7.37;;;-3.70;99.90;;;;;;5086492;28;20284;-65
2023/12/02 00:48:49;;;;;;;12.03;7.20;;;-3.80;99.90;;;;;;5082979;28;20203;-65
2023/12/02 00:51:16;;;;;;;8.90;7.30;;;-4.00;99.90;;;;;;5087538;28;20202;-65
2023/12/02 00:53:44;;;;;;;9.70;6.75;;;-4.20;99.90;;;;;;5087208;28;20298;-66
2023/12/02 00:56:12;;;;;;;9.80;7.00;;;-4.20;99.90;;;;;;5087654;28;20445;-65
2023/12/02 00:58:39;;;;;;;7.67;6.67;;;-4.20;99.90;;;;;;5087098;28;20287;-66
2023/12/02 01:01:07;;;;;;;11.40;8.07;;;-4.10;99.90;;;;;;5087392;28;20285;-66
2023/12/02 01:03:34;;;;;;;10.63;7.47;;;-4.10;99.90;;;;;;5087062;28;20245;-65
2023/12/02 01:06:00;;;;;;;12.63;8.13;;;-4.00;99.90;;;;;;5086485;28;20208;-65
2023/12/02 01:08:27;;;;;;;12.00;8.67;;;-4.00;99.90;;;;;;5086928;28;20230;-65
2023/12/02 01:10:54;;;;;;;13.13;8.00;;;-3.90;99.90;;;;;;5086814;28;20698;-65
2023/12/02 01:13:22;;;;;;;10.97;8.13;;;-3.90;99.90;;;;;;5087036;28;20283;-65
2023/12/02 01:15:48;;;;;;;12.63;8.53;;;-3.90;99.90;;;;;;5086456;28;20245;-65
2023/12/02 01:18:15;;;;;;;9.77;7.23;;;-3.90;99.90;;;;;;5087157;28;20303;-65
2023/12/02 01:20:42;;;;;;;9.30;7.00;;;-4.00;99.90;;;;;;5069082;28;20199;-66
2023/12/02 01:23:09;;;;;;;10.20;7.27;;;-4.00;99.90;;;;;;5076820;28;20285;-65
2023/12/02 01:25:36;;;;;;;9.10;6.43;;;-4.00;99.90;;;;;;5086441;28;20297;-66
2023/12/02 01:28:03;;;;;;;9.70;6.80;;;-4.00;99.90;;;;;;5086255;28;20298;-66
2023/12/02 01:30:31;;;;;;;11.90;7.40;;;-3.90;99.90;;;;;;5086994;28;20213;-66
2023/12/02 01:32:58;;;;;;;10.97;6.37;;;-4.00;99.90;;;;;;5087186;28;20301;-65
2023/12/02 01:35:25;;;;;;;8.50;6.80;;;-4.00;99.90;;;;;;5086866;28;20234;-65
2023/12/02 01:37:52;;;;;;;7.57;5.87;;;-4.10;99.90;;;;;;5086222;28;20751;-65
2023/12/02 01:40:18;;;;;;;8.20;5.87;;;-4.10;99.90;;;;;;5086817;28;20209;-66
2023/12/02 01:42:45;;;;;;;8.00;5.90;;;-4.10;99.90;;;;;;5086351;28;20621;-65
2023/12/02 01:45:12;;;;;;;8.83;6.33;;;-4.10;99.90;;;;;;5086980;28;20242;-66
2023/12/02 01:47:43;;;;;;;8.40;6.13;;;-4.20;99.90;;;;;;5086658;28;20776;-65
2023/12/02 01:50:11;;;;;;;7.77;6.07;;;-4.20;99.90;;;;;;5086528;28;20204;-65
2023/12/02 01:52:38;;;;;;;8.43;6.27;;;-4.20;99.90;;;;;;5086169;28;20257;-66
2023/12/02 01:55:06;;;;;;;7.87;5.83;;;-4.20;99.90;;;;;;5086527;28;20599;-66
2023/12/02 01:57:33;;;;;;;9.17;6.27;;;-4.10;99.90;;;;;;5086478;28;20298;-65
2023/12/02 02:00:00;;;;;;;8.77;6.10;;;-4.10;99.90;;;;;;5086688;28;20299;-66
2023/12/02 02:02:27;;;;;;;8.53;6.23;;;-4.00;99.90;;;;;;5086355;28;20242;-66
2023/12/02 02:04:55;;;;;;;8.67;6.33;;;-4.00;99.90;;;;;;5086239;28;20316;-66
2023/12/02 02:07:22;;;;;;;8.80;6.80;;;-4.00;99.90;;;;;;5085916;28;20272;-66
2023/12/02 02:09:50;;;;;;;9.10;6.77;;;-4.00;99.90;;;;;;5086069;28;20632;-66
2023/12/02 02:12:17;;;;;;;9.00;6.53;;;-4.00;99.90;;;;;;5086195;28;20214;-66
2023/12/02 02:14:44;;;;;;;11.40;7.07;;;-4.00;99.90;;;;;;5086441;28;20258;-65
2023/12/02 02:17:11;;;;;;;9.63;5.97;;;-4.00;99.90;;;;;;5087884;28;20257;-65
2023/12/02 02:19:38;;;;;;;8.53;6.20;;;-4.10;99.90;;;;;;5086844;28;20307;-65
2023/12/02 02:22:06;;;;;;;8.47;5.70;;;-4.10;99.90;;;;;;5070985;28;20203;-65
2023/12/02 02:24:33;;;;;;;6.70;5.30;;;-4.10;99.90;;;;;;5090127;28;20212;-65
2023/12/02 02:27:00;;;;;;;6.47;5.30;;;-4.30;99.90;;;;;;5089681;28;20203;-65
2023/12/02 02:29:26;;;;;;;6.03;5.10;;;-4.30;99.90;;;;;;5089912;28;20297;-65
2023/12/02 02:31:53;;;;;;;8.27;5.37;;;-4.30;99.90;;;;;;5089725;28;20237;-65
2023/12/02 02:34:20;;;;;;;6.57;5.47;;;-4.20;99.90;;;;;;5089868;28;20645;-65
2023/12/02 02:36:47;;;;;;;6.00;5.20;;;-4.20;99.90;;;;;;5089702;28;20329;-65
2023/12/02 02:39:15;;;;;;;6.87;5.50;;;-4.10;99.90;;;;;;5089844;28;20206;-65
2023/12/02 02:41:42;;;;;;;6.67;5.77;;;-4.10;99.90;;;;;;5089404;28;20209;-65
2023/12/02 02:44:09;;;;;;;8.50;5.97;;;-4.10;99.90;;;;;;5083146;28;20292;-65
2023/12/02 02:46:36;;;;;;;8.67;5.87;;;-4.10;99.90;;;;;;5069427;28;20212;-65
2023/12/02 02:49:03;;;;;;;6.93;5.47;;;-4.10;99.90;;;;;;5069586;28;20308;-65
2023/12/02 02:51:30;;;;;;;8.07;5.70;;;-4.10;99.90;;;;;;5069632;28;20230;-65
2023/12/02 02:53:57;;;;;;;9.33;6.20;;;-4.10;99.90;;;;;;5088617;28;20293;-65
2023/12/02 02:56:25;;;;;;;7.67;5.80;;;-4.20;99.90;;;;;;5089376;28;20270;-65
2023/12/02 02:58:52;;;;;;;7.43;5.50;;;-4.20;99.90;;;;;;5093806;28;20288;-65
2023/12/02 03:01:19;;;;;;;8.43;6.27;;;-4.20;99.90;;;;;;5096188;28;20684;-65
2023/12/02 03:03:46;;;;;;;9.03;6.23;;;-4.20;99.90;;;;;;5099101;28;20300;-65
2023/12/02 03:06:12;;;;;;;8.73;6.17;;;-4.20;99.90;;;;;;5097591;28;20290;-65
2023/12/02 03:08:39;;;;;;;9.60;5.30;;;-4.30;99.90;;;;;;5091621;28;20318;-66
2023/12/02 03:11:07;;;;;;;7.60;4.60;;;-4.50;99.90;;;;;;5091885;28;20293;-66
2023/12/02 03:13:35;;;;;;;5.90;4.70;;;-4.50;99.90;;;;;;5088885;28;20424;-65
2023/12/02 03:16:02;;;;;;;6.23;4.73;;;-4.60;99.90;;;;;;5088610;28;20279;-66
2023/12/02 03:18:29;;;;;;;4.60;4.00;;;-4.70;99.90;;;;;;5081120;28;20286;-66
2023/12/02 03:20:56;;;;;;;6.07;4.67;;;-4.70;99.90;;;;;;5068569;28;20204;-66
2023/12/02 03:23:22;;;;;;;4.97;4.40;;;-4.70;99.90;;;;;;5081452;28;20301;-65
2023/12/02 03:25:49;;;;;;;7.37;5.13;;;-4.60;99.90;;;;;;5088879;28;20294;-65
2023/12/02 03:28:16;;;;;;;5.47;4.30;;;-4.50;99.90;;;;;;5088171;28;20203;-65
2023/12/02 03:30:45;;;;;;;6.03;5.03;;;-4.60;99.90;;;;;;5088918;28;20306;-65
2023/12/02 03:33:11;;;;;;;7.33;5.00;;;-4.50;99.90;;;;;;5088688;28;20670;-66
2023/12/02 03:35:38;;;;;;;6.67;5.00;;;-4.50;99.90;;;;;;5082219;28;20251;-66
2023/12/02 03:38:05;;;;;;;5.77;4.77;;;-4.50;99.90;;;;;;5068364;28;20211;-65
2023/12/02 03:40:32;;;;;;;7.00;5.07;;;-4.50;99.90;;;;;;5068364;28;20294;-65
2023/12/02 03:42:59;;;;;;;6.97;5.17;;;-4.60;99.90;;;;;;5068132;28;20211;-65
2023/12/02 03:45:27;;;;;;;16.47;5.43;;;-4.60;99.90;;;;;;5086502;28;20737;-66
2023/12/02 03:47:55;;;;;;;7.57;5.60;;;-4.60;99.90;;;;;;5088652;28;20206;-66
2023/12/02 03:50:22;;;;;;;6.93;5.30;;;-4.60;99.90;;;;;;5088606;28;20301;-66
2023/12/02 03:52:49;;;;;;;5.73;4.77;;;-4.60;99.90;;;;;;5087884;28;20203;-66
2023/12/02 03:55:18;;;;;;;6.43;4.60;;;-4.60;99.90;;;;;;5088212;28;20680;-66
2023/12/02 03:57:45;;;;;;;10.67;4.40;;;-4.80;99.90;;;;;;5088311;28;20309;-66
2023/12/02 04:00:13;;;;;;;4.83;4.20;;;-5.00;99.90;;;;;;5088565;28;20207;-66
2023/12/02 04:02:40;;;;;;;5.57;4.20;;;-5.20;99.90;;;;;;5088132;28;20271;-65
2023/12/02 04:05:10;;;;;;;5.97;4.47;;;-5.10;99.90;;;;;;5088215;28;20297;-66
2023/12/02 04:07:37;;;;;;;5.67;4.33;;;-5.10;99.90;;;;;;5088391;28;20297;-66
2023/12/02 04:10:04;;;;;;;4.63;3.73;;;-5.10;99.90;;;;;;5088463;28;20283;-68
2023/12/02 04:12:31;;;;;;;4.90;4.20;;;-5.20;99.90;;;;;;5088249;28;20290;-66
2023/12/02 04:14:58;;;;;;;3.67;3.30;;;-5.30;99.90;;;;;;5088394;28;20214;-65
2023/12/02 04:17:26;;;;;;;4.40;3.90;;;-5.20;99.90;;;;;;5088110;28;20795;-65
2023/12/02 04:19:53;;;;;;;4.80;4.20;;;-5.20;99.90;;;;;;5088266;28;20203;-65
2023/12/02 04:22:21;;;;;;;4.67;4.00;;;-5.10;99.90;;;;;;5091933;28;20303;-65
2023/12/02 04:24:48;;;;;;;4.00;3.60;;;-5.00;99.90;;;;;;5108540;28;20218;-65
2023/12/02 04:27:15;;;;;;;5.23;4.10;;;-4.90;99.90;;;;;;5082704;28;20296;-66
2023/12/02 04:29:42;;;;;;;5.80;4.40;;;-4.80;99.90;;;;;;5068094;28;20286;-65
2023/12/02 04:32:09;;;;;;;5.53;4.17;;;-4.80;99.90;;;;;;5067518;28;20247;-65
2023/12/02 04:34:36;;;;;;;5.33;4.50;;;-4.60;99.90;;;;;;5067426;28;20412;-66
2023/12/02 04:37:03;;;;;;;5.10;4.60;;;-4.70;99.90;;;;;;5067449;28;20231;-65
2023/12/02 04:39:32;;;;;;;7.23;4.50;;;-4.60;99.90;;;;;;5067018;28;20298;-65
2023/12/02 04:41:59;;;;;;;5.83;4.60;;;-4.60;99.90;;;;;;5067260;28;20264;-66
2023/12/02 04:44:26;;;;;;;5.87;4.47;;;-4.50;99.90;;;;;;5068093;28;20206;-65
2023/12/02 04:46:53;;;;;;;4.97;4.07;;;-4.50;99.90;;;;;;5067352;28;20306;-65
2023/12/02 04:49:20;;;;;;;6.30;4.60;;;-4.50;99.90;;;;;;5067489;28;20294;-65
2023/12/02 04:51:47;;;;;;;4.90;4.40;;;-4.50;99.90;;;;;;5071903;28;20223;-65
2023/12/02 04:54:14;;;;;;;6.43;4.60;;;-4.60;99.90;;;;;;5087823;28;20240;-66
2023/12/02 04:56:42;;;;;;;4.10;3.70;;;-4.60;99.90;;;;;;5087128;28;20338;-66
2023/12/02 04:59:09;;;;;;;2.87;2.67;;;-4.60;99.90;;;;;;5087462;28;20310;-65
2023/12/02 05:01:36;;;;;;;3.67;3.30;;;-4.50;99.90;;;;;;5087422;28;20230;-66
2023/12/02 05:04:03;;;;;;;3.53;3.23;;;-4.50;99.90;;;;;;5087201;28;20293;-64
2023/12/02 05:06:30;;;;;;;3.47;3.17;;;-4.50;99.90;;;;;;5086855;28;20234;-64
2023/12/02 05:08:57;;;;;;;3.13;2.90;;;-4.50;99.90;;;;;;5086942;28;20315;-65
2023/12/02 05:11:25;;;;;;;3.73;3.37;;;-4.50;99.90;;;;;;5086916;28;20625;-64
2023/12/02 05:13:53;;;;;;;3.43;3.13;;;-4.50;99.90;;;;;;5086998;28;20245;-64
2023/12/02 05:16:21;;;;;;;4.07;3.63;;;-4.50;99.90;;;;;;5073552;28;20250;-64
2023/12/02 05:18:48;;;;;;;3.40;3.10;;;-4.40;99.90;;;;;;5066908;28;20295;-64
2023/12/02 05:21:15;;;;;;;3.67;3.20;;;-4.40;99.90;;;;;;5083137;28;20297;-64
2023/12/02 05:23:44;;;;;;;3.93;3.53;;;-4.40;99.90;;;;;;5088400;28;20267;-63
2023/12/02 05:26:11;;;;;;;4.30;3.20;;;-4.40;99.90;;;;;;5086760;28;20298;-64
2023/12/02 05:28:39;;;;;;;3.47;3.17;;;-4.40;99.90;;;;;;5086665;28;20207;-63
2023/12/02 05:31:08;;;;;;;4.07;3.63;;;-4.50;99.90;;;;;;5087086;28;20687;-63
2023/12/02 05:33:35;;;;;;;8.03;3.70;;;-4.60;99.90;;;;;;5070783;28;20269;-64
2023/12/02 05:36:02;;;;;;;3.80;3.50;;;-4.70;99.90;;;;;;5066335;28;20238;-64
2023/12/02 05:38:29;;;;;;;3.63;3.33;;;-4.60;99.90;;;;;;5066603;28;20210;-63
2023/12/02 05:40:55;;;;;;;4.27;3.40;;;-4.60;99.90;;;;;;5066465;28;20213;-64
2023/12/02 05:43:23;;;;;;;3.97;3.40;;;-4.60;99.90;;;;;;5066269;28;20243;-64
2023/12/02 05:45:50;;;;;;;3.93;3.53;;;-4.60;99.90;;;;;;5066187;28;20214;-63
2023/12/02 05:48:18;;;;;;;4.37;3.63;;;-4.60;99.90;;;;;;5066227;28;20294;-63
2023/12/02 05:50:45;;;;;;;4.30;3.90;;;-4.60;99.90;;;;;;5067184;28;20301;-63
2023/12/02 05:53:15;;;;;;;4.73;3.83;;;-4.50;99.90;;;;;;5084493;28;20291;-64
2023/12/02 05:55:42;;;;;;;4.27;3.60;;;-4.50;99.90;;;;;;5090600;28;20323;-64
2023/12/02 05:58:09;;;;;;;4.77;3.73;;;-4.40;99.90;;;;;;5089938;28;20260;-64
2023/12/02 06:00:36;;;;;;;4.10;3.30;;;-4.40;99.90;;;;;;5090256;28;20758;-64
2023/12/02 06:03:03;;;;;;;3.83;3.50;;;-4.40;99.90;;;;;;5090031;28;20208;-64
2023/12/02 06:05:31;;;;;;;5.73;3.90;;;-4.40;99.90;;;;;;5085038;28;20729;-64
2023/12/02 06:07:58;;;;;;;5.20;3.77;;;-4.50;99.90;;;;;;5090194;28;20839;-64
2023/12/02 06:10:25;;;;;;;4.27;3.37;;;-4.50;99.90;;;;;;5090202;28;20302;-64
2023/12/02 06:12:52;;;;;;;4.30;3.67;;;-4.70;99.90;;;;;;5090047;28;20325;-64
2023/12/02 06:15:19;;;;;;;4.97;3.00;;;-4.60;99.90;;;;;;5090336;28;20319;-64
2023/12/02 06:17:46;;;;;;;6.40;5.40;;;-4.70;99.90;;;;;;5089682;28;20685;-65
2023/12/02 06:20:13;;;;;;;4.53;3.40;;;-4.70;99.90;;;;;;5090463;28;20261;-64
2023/12/02 06:22:42;;;;;;;3.83;3.23;;;-4.60;99.90;;;;;;5089729;28;20294;-65
2023/12/02 06:25:09;;;;;;;3.60;3.30;;;-4.60;99.90;;;;;;5090336;28;20215;-65
2023/12/02 06:27:36;;;;;;;3.50;3.20;;;-4.70;99.90;;;;;;5089402;28;20211;-64
2023/12/02 06:30:04;;;;;;;3.57;3.27;;;-4.70;99.90;;;;;;5090023;28;20214;-64
2023/12/02 06:32:32;;;;;;;5.20;3.73;;;-4.70;99.90;;;;;;5089715;28;20214;-64
2023/12/02 06:34:59;;;;;;;4.27;3.70;;;-4.60;99.90;;;;;;5089645;28;20223;-64
2023/12/02 06:37:25;;;;;;;4.70;3.53;;;-4.60;99.90;;;;;;5089721;28;20235;-64
2023/12/02 06:39:54;;;;;;;4.37;3.70;;;-4.50;99.90;;;;;;5088851;28;20300;-64
2023/12/02 06:42:20;;;;;;;4.70;3.80;;;-4.30;99.90;;;;;;5078567;28;20683;-64
2023/12/02 06:44:47;;;;;;;5.20;4.17;;;-4.10;99.90;;;;;;5069104;28;20208;-64
2023/12/02 06:47:14;;;;;;;4.80;4.07;;;-4.10;99.90;;;;;;5069507;28;20207;-64
2023/12/02 06:49:41;;;;;;;6.40;4.27;;;-4.10;99.90;;;;;;5069101;28;20623;-64
2023/12/02 06:52:08;;;;;;;5.87;4.30;;;-4.10;99.90;;;;;;5068920;28;20294;-65
2023/12/02 06:54:37;;;;;;;5.90;4.17;;;-4.00;99.90;;;;;;5068954;28;20288;-64
2023/12/02 06:57:06;;;;;;;5.83;4.37;;;-3.90;99.90;;;;;;5083884;28;20573;-64
2023/12/02 06:59:33;;;;;;;6.13;4.03;;;-3.80;99.90;;;;;;5096885;28;20207;-64
2023/12/02 07:02:00;;;;;;;5.00;4.27;;;-3.90;99.90;;;;;;5097164;28;20772;-63
2023/12/02 07:04:27;;;;;;;5.13;4.53;;;-3.90;99.90;;;;;;5099064;28;20289;-63
2023/12/02 07:06:54;;;;;;;6.73;4.83;;;-3.90;99.90;;;;;;5099547;28;20211;-63
2023/12/02 07:09:21;;;;;;;7.13;4.80;;;-3.90;99.90;;;;;;5091457;28;20350;-63
2023/12/02 07:11:48;;;;;;;6.30;4.67;;;-3.90;99.90;;;;;;5094991;28;20298;-63
2023/12/02 07:14:16;;;;;;;6.73;4.33;;;-4.00;99.90;;;;;;5089005;28;20203;-64
2023/12/02 07:16:43;;;;;;;7.83;5.03;;;-4.00;99.90;;;;;;5088626;28;20660;-63
2023/12/02 07:19:10;;;;;;;7.13;5.20;;;-3.90;99.90;;;;;;5089111;28;20209;-63
2023/12/02 07:21:37;;;;;;;6.73;4.77;;;-3.90;99.90;;;;;;5088991;28;20289;-63
2023/12/02 07:24:04;;;;;;;6.97;4.63;;;-3.90;99.90;;;;;;5088641;28;20298;-63
2023/12/02 07:26:31;;;;;;;8.60;5.00;;;-3.90;99.90;;;;;;5088652;28;20285;-63
2023/12/02 07:28:58;;;;;;;8.10;5.30;;;-4.00;99.90;;;;;;5089127;28;20309;-63
2023/12/02 07:31:27;;;;;;;6.30;5.47;;;-4.00;99.90;;;;;;5088809;28;20256;-63
2023/12/02 07:33:54;;;;;;;8.47;5.47;;;-3.90;99.90;;;;;;5088843;28;20242;-63
2023/12/02 07:36:21;;;;;;;9.10;6.17;;;-3.90;99.90;;;;;;5085571;28;20804;-63
2023/12/02 07:38:48;;;;;;;9.90;6.03;;;-3.90;99.90;;;;;;5075105;28;20215;-63
2023/12/02 07:41:15;;;;;;;9.40;5.63;;;-3.90;99.90;;;;;;5088491;28;20258;-63
2023/12/02 07:43:41;;;;;;;9.30;6.07;;;-3.90;99.90;;;;;;5088573;28;20246;-63
2023/12/02 07:46:09;;;;;;;8.87;5.73;;;-3.90;99.90;;;;;;5088742;28;20214;-63
2023/12/02 07:48:37;;;;;;;9.27;5.87;;;-3.80;99.90;;;;;;5087618;28;20680;-64
2023/12/02 07:51:05;;;;;;;8.90;5.57;;;-3.80;99.90;;;;;;5088322;28;20295;-66
2023/12/02 07:53:31;;;;;;;8.57;6.07;;;-3.90;99.90;;;;;;5085030;28;20242;-66
2023/12/02 07:55:58;;;;;;;8.97;6.43;;;-3.90;99.90;;;;;;5067889;28;20204;-66
2023/12/02 07:58:25;;;;;;;9.43;5.63;;;-3.90;99.90;;;;;;5068142;28;20299;-66
2023/12/02 08:00:52;;;;;;;8.73;5.77;;;-3.80;99.90;;;;;;5067602;28;20729;-66
2023/12/02 08:03:19;;;;;;;11.03;6.00;;;-3.80;99.90;;;;;;5082990;28;20701;-63
2023/12/02 08:05:48;;;;;;;9.70;6.00;;;-3.70;99.90;;;;;;5087349;28;20314;-63
2023/12/02 08:08:14;;;;;;;11.80;6.40;;;-3.70;99.90;;;;;;5087847;28;20238;-64
2023/12/02 08:10:41;;;;;;;9.70;5.83;;;-3.70;99.90;;;;;;5087877;28;20213;-63
2023/12/02 08:13:08;;;;;;;9.03;6.07;;;-3.70;99.90;;;;;;5087609;28;20242;-64
2023/12/02 08:15:36;;;;;;;8.53;5.73;;;-3.60;99.90;;;;;;5087000;28;20329;-63
2023/12/02 08:18:03;;;;;;;8.70;5.70;;;-3.60;99.90;;;;;;5087483;28;20222;-64
2023/12/02 08:20:30;;;;;;;9.43;6.33;;;-3.50;99.90;;;;;;5087400;28;20298;-64
2023/12/02 08:22:58;;;;;;;8.20;5.37;;;-3.50;99.90;;;;;;5087530;28;20226;-63
2023/12/02 08:25:26;;;;;;;8.90;5.50;;;-3.50;99.90;;;;;;5087232;28;20211;-63
2023/12/02 08:27:53;;;;;;;9.90;6.07;;;-3.40;99.90;;;;;;5087004;28;20663;-63
2023/12/02 08:30:20;;;;;;;8.23;5.27;;;-3.40;99.90;;;;;;5087296;28;20683;-64
2023/12/02 08:32:46;;;;;;;8.50;5.97;;;-3.30;99.90;;;;;;5086457;28;20986;-64
2023/12/02 08:35:13;;;;;;;8.00;5.47;;;-3.40;99.90;;;;;;5067050;28;21020;-63
2023/12/02 08:37:40;;;;;;;7.20;5.70;;;-3.30;99.90;;;;;;5067012;28;20322;-63
2023/12/02 08:40:09;;;;;;;7.57;4.97;;;-3.30;99.90;;;;;;5066992;28;20203;-64
2023/12/02 08:42:36;;;;;;;8.20;5.67;;;-3.20;99.90;;;;;;5066520;28;20649;-64
2023/12/02 08:45:04;;;;;;;11.13;6.37;;;-3.10;99.90;;;;;;5066934;28;20869;-63
2023/12/02 08:47:31;;;;;;;9.50;6.67;;;-3.10;99.90;;;;;;5076872;28;20242;-63
2023/12/02 08:49:58;;;;;;;9.37;6.20;;;-3.20;99.90;;;;;;5067132;28;20227;-64
2023/12/02 08:52:25;;;;;;;9.67;5.83;;;-3.20;99.90;;;;;;5066745;28;20299;-63
2023/12/02 08:54:52;;;;;;;12.23;7.00;;;-3.20;99.90;;;;;;5067415;28;20243;-64
2023/12/02 08:57:20;;;;;;;10.20;6.50;;;-3.20;99.90;;;;;;5066587;28;20329;-64
2023/12/02 08:59:47;;;;;;;10.27;6.37;;;-3.30;99.90;;;;;;5072345;28;20274;-64
2023/12/02 09:02:14;;;;;;;11.43;6.67;;;-3.30;99.90;;;;;;5086786;28;20213;-63
2023/12/02 09:04:41;;;;;;;9.27;6.90;;;-3.20;99.90;;;;;;5086915;28;20283;-64
2023/12/02 09:07:07;;;;;;;11.37;7.07;;;-3.20;99.90;;;;;;5086866;28;20258;-64
2023/12/02 09:09:34;;;;;;;8.73;6.20;;;-3.20;99.90;;;;;;5086413;28;20338;-63
2023/12/02 09:12:01;;;;;;;10.03;6.20;;;-3.30;99.90;;;;;;5086666;28;20208;-64
2023/12/02 09:14:29;;;;;;;11.10;6.63;;;-3.40;99.90;;;;;;5086489;28;20248;-63
2023/12/02 09:16:56;;;;;;;10.80;6.73;;;-3.40;99.90;;;;;;5086715;28;20231;-63
2023/12/02 09:19:53;;;;;;;9.80;6.07;;;-3.30;99.90;;;;;;5086656;28;20760;-63
2023/12/02 09:22:47;;;;;;;9.33;5.93;;;-3.40;99.90;;;;;;5086769;28;20213;-63
2023/12/02 09:25:26;;;;;;;10.20;6.53;;;-3.50;99.90;;;;;;5086772;28;20196;-64
2023/12/02 09:28:14;;;;;;;7.73;5.77;;;-3.40;99.90;;;;;;5090462;28;20737;-64
2023/12/02 09:30:53;;;;;;;8.53;5.87;;;-3.40;99.90;;;;;;5091348;28;20570;-64
2023/12/02 09:33:20;;;;;;;7.27;5.37;;;-3.40;99.90;;;;;;5090689;28;20693;-64
2023/12/02 09:35:49;;;;;;;7.40;5.23;;;-3.50;99.90;;;;;;5091194;28;20302;-64
2023/12/02 09:38:16;;;;;;;8.90;5.83;;;-3.50;99.90;;;;;;5072667;28;20834;-64
2023/12/02 09:41:24;;;;;;;9.77;6.20;;;-3.40;99.90;;;;;;5070848;28;20574;-63
2023/12/02 09:44:22;;;;;;;8.97;6.03;;;-3.40;99.90;;;;;;5048508;28;20207;-64
2023/12/02 09:47:03;;;;;;;8.37;5.67;;;-3.30;99.90;;;;;;5070353;28;20478;-63
2023/12/02 09:49:58;;;;;;;9.47;6.37;;;-3.30;99.90;;;;;;5071490;28;20246;-63
2023/12/02 09:52:48;;;;;;;9.40;6.60;;;-3.20;99.90;;;;;;5074993;28;20211;-64
2023/12/02 09:55:21;;;;;;;10.07;6.10;;;-3.30;99.90;;;;;;5090561;28;20203;-64
2023/12/02 09:57:54;;;;;;;11.20;6.57;;;-3.40;99.90;;;;;;5090167;28;20262;-64
2023/12/02 10:00:35;;;;;;;12.47;7.00;;;-3.40;99.90;;;;;;5090460;28;20277;-64
2023/12/02 10:03:38;;;;;;;8.27;5.77;;;-3.40;99.90;;;;;;5090603;28;20322;-65
2023/12/02 10:06:18;;;;;;;9.40;5.83;;;-3.30;99.90;;;;;;5082232;28;20290;-66
2023/12/02 10:08:56;;;;;;;9.40;5.97;;;-3.30;99.90;;;;;;5067837;28;20326;-66
2023/12/02 10:11:31;;;;;;;8.83;5.90;;;-3.30;99.90;;;;;;5068547;28;20205;-64
2023/12/02 10:14:01;;;;;;;9.03;5.77;;;-3.30;99.90;;;;;;5068607;28;20195;-64
2023/12/02 10:16:31;;;;;;;8.73;5.97;;;-3.30;99.90;;;;;;5068003;28;20268;-64
2023/12/02 10:19:02;;;;;;;7.73;5.90;;;-3.20;99.90;;;;;;5068020;28;20310;-64
2023/12/02 10:21:30;;;;;;;7.33;4.80;;;-3.20;99.90;;;;;;5087672;28;20256;-64
2023/12/02 10:24:05;;;;;;;7.17;5.70;;;-3.30;99.90;;;;;;5088357;28;20335;-64
2023/12/02 10:26:41;;;;;;;6.87;4.97;;;-3.40;99.90;;;;;;5088352;28;20196;-64
2023/12/02 10:29:16;;;;;;;8.33;5.13;;;-3.40;99.90;;;;;;5088267;28;20286;-64
2023/12/02 10:31:53;;;;;;;5.33;4.70;;;-3.40;99.90;;;;;;5088275;28;20278;-64
2023/12/02 10:34:29;;;;;;;6.67;4.63;;;-3.50;99.90;;;;;;5087888;28;20234;-64
2023/12/02 10:37:00;;;;;;;7.70;5.33;;;-3.50;99.90;;;;;;5071742;28;20648;-64
2023/12/02 10:39:36;;;;;;;6.47;4.93;;;-3.50;99.90;;;;;;5087156;28;20211;-64
2023/12/02 10:42:04;;;;;;;6.93;5.10;;;-3.40;99.90;;;;;;5087471;28;20202;-64
2023/12/02 10:44:33;;;;;;;6.90;5.07;;;-3.40;99.90;;;;;;5087169;28;20685;-64
2023/12/02 10:47:01;;;;;;;8.73;4.97;;;-3.30;99.90;;;;;;5075233;28;20219;-64
2023/12/02 10:49:30;;;;;;;7.43;5.40;;;-3.40;99.90;;;;;;5067526;28;20211;-66
2023/12/02 10:51:59;;;;;;;7.43;5.00;;;-3.60;99.90;;;;;;5068093;28;20230;-65
2023/12/02 10:54:29;;;;;;;8.67;4.70;;;-3.50;99.90;;;;;;5080387;28;20199;-65
2023/12/02 10:57:06;;;;;;;9.20;4.90;;;-3.60;99.90;;;;;;5078696;28;20248;-65
2023/12/02 10:59:35;;;;;;;8.53;5.03;;;-3.60;99.90;;;;;;5087612;28;20193;-65
2023/12/02 11:02:24;;;;;;;8.37;5.47;;;-3.50;99.90;;;;;;5087485;28;20649;-65
2023/12/02 11:05:03;;;;;;;6.83;4.90;;;-3.40;99.90;;;;;;5082127;28;20287;-65
2023/12/02 11:07:32;;;;;;;8.20;5.27;;;-3.40;99.90;;;;;;5087151;28;20225;-65
2023/12/02 11:10:03;;;;;;;7.57;5.43;;;-3.30;99.90;;;;;;5100907;28;20274;-65
2023/12/02 11:12:35;;;;;;;10.60;5.80;;;-3.20;99.90;;;;;;5092853;28;20198;-65
2023/12/02 11:15:05;;;;;;;8.47;5.90;;;-3.20;99.90;;;;;;5095586;28;20653;-65
2023/12/02 11:17:39;;;;;;;9.07;6.00;;;-3.10;99.90;;;;;;5097182;28;20699;-65
2023/12/02 11:20:20;;;;;;;8.30;5.53;;;-3.10;99.90;;;;;;5088644;28;20659;-65
2023/12/02 11:23:14;;;;;;;7.80;5.40;;;-3.00;99.90;;;;;;5094324;28;20219;-65
2023/12/02 11:25:59;;;;;;;8.43;5.40;;;-3.00;99.90;;;;;;5107551;28;20300;-65
2023/12/02 11:28:35;;;;;;;9.27;6.00;;;-3.00;99.90;;;;;;5099034;28;20627;-65
2023/12/02 11:31:17;;;;;;;8.10;5.63;;;-2.90;99.90;;;;;;5078560;28;20189;-65
2023/12/02 11:33:57;;;;;;;11.40;7.00;;;-2.90;99.90;;;;;;5066079;28;20232;-65
2023/12/02 11:36:38;;;;;;;9.53;5.70;;;-2.90;99.90;;;;;;5066795;28;20365;-65
2023/12/02 11:39:16;;;;;;;8.63;6.13;;;-2.90;99.90;;;;;;5066028;28;20229;-65
2023/12/02 11:41:53;;;;;;;7.63;5.83;;;-2.80;99.90;;;;;;5065778;28;20288;-65
2023/12/02 11:44:32;;;;;;;10.37;6.27;;;-3.00;99.90;;;;;;5065877;28;20669;-65
2023/12/02 11:47:14;;;;;;;9.20;6.30;;;-3.00;99.90;;;;;;5077889;28;20309;-64
2023/12/02 11:49:53;;;;;;;9.60;6.37;;;-3.00;99.90;;;;;;5082879;28;20285;-65
2023/12/02 11:52:27;;;;;;;9.27;6.43;;;-2.90;99.90;;;;;;5068071;28;20194;-65
2023/12/02 11:55:08;;;;;;;11.83;7.23;;;-2.90;99.90;;;;;;5083420;28;20241;-64
2023/12/02 11:57:59;;;;;;;11.70;6.97;;;-3.00;99.90;;;;;;5085045;28;20226;-65
2023/12/02 12:00:37;;;;;;;10.00;6.40;;;-3.00;99.90;;;;;;5087333;28;20216;-65
2023/12/02 12:03:15;;;;;;;9.97;6.63;;;-2.90;99.90;;;;;;5084116;28;20200;-65
2023/12/02 12:05:53;;;;;;;10.80;6.93;;;-2.90;99.90;;;;;;5086165;28;20556;-65
2023/12/02 12:08:23;;;;;;;9.90;6.97;;;-2.90;99.90;;;;;;5085639;28;20287;-65
2023/12/02 12:10:53;;;;;;;10.43;6.63;;;-2.90;99.90;;;;;;5076484;28;20249;-65
2023/12/02 12:13:21;;;;;;;10.30;7.40;;;-2.80;99.90;;;;;;5087505;28;20202;-64
2023/12/02 12:15:48;;;;;;;9.97;7.03;;;-3.00;99.90;;;;;;5087425;28;20240;-64
2023/12/02 12:18:17;;;;;;;10.50;7.03;;;-2.90;99.90;;;;;;5077808;28;20231;-65
2023/12/02 12:20:44;;;;;;;11.70;7.70;;;-2.90;99.90;;;;;;5082706;28;20685;-65
2023/12/02 12:23:12;;;;;;;12.33;7.93;;;-2.80;99.90;;;;;;5088842;28;20221;-65
2023/12/02 12:25:42;;;;;;;11.77;7.83;;;-2.80;99.90;;;;;;5085498;28;20280;-65
2023/12/02 12:28:09;;;;;;;10.63;7.17;;;-2.70;99.90;;;;;;5084463;28;20763;-65
2023/12/02 12:30:47;;;;;;;10.23;7.37;;;-2.70;99.90;;;;;;5078922;28;20667;-64
2023/12/02 12:33:15;;;;;;;8.50;7.03;;;-2.60;99.90;;;;;;5076030;28;20257;-64
2023/12/02 12:35:42;;;;;;;11.33;7.67;;;-2.60;99.90;;;;;;5076755;28;20202;-64
2023/12/02 12:38:10;;;;;;;10.03;7.37;;;-2.60;99.90;;;;;;5077491;28;20312;-64
2023/12/02 12:40:37;;;;;;;9.43;7.43;;;-2.60;99.90;;;;;;5086928;28;20291;-65
2023/12/02 12:43:07;;;;;;;8.27;6.90;;;-2.60;99.90;;;;;;5080576;28;20233;-65
2023/12/02 12:45:34;;;;;;;11.23;7.20;;;-2.70;99.90;;;;;;5084280;28;20294;-65
2023/12/02 12:48:02;;;;;;;10.70;7.57;;;-2.70;99.90;;;;;;5086753;28;20495;-65
2023/12/02 12:50:32;;;;;;;9.00;7.40;;;-2.60;99.90;;;;;;5075340;28;20194;-64
2023/12/02 12:53:04;;;;;;;8.77;7.27;;;-2.60;99.90;;;;;;5082914;28;20219;-64
2023/12/02 12:55:34;;;;;;;8.00;6.60;;;-2.60;99.90;;;;;;5086787;28;20197;-65
2023/12/02 12:58:10;;;;;;;7.70;6.90;;;-2.60;99.90;;;;;;5086713;28;20231;-65